Impacts TAF Board
For situational awareness. Not to be used for flight planning purposes.
IDs:

KTCS - Truth or Consequence, NM, US

Issued at 1736 UTC 02 Aug 2021
Updated at 2239 UTC 02 Aug 2021
Potential Impact None Slight Moderate High
Time2153Z 02/23Z 03/00Z 03/01Z 03/02Z 03/03Z 03/04Z 03/05Z 03/06Z 03/07Z 03/08Z 03/09Z 03/10Z 03/11Z>>
Type OBS PRVL PRVL PRVL PRVL PRVL PRVL PRVL PRVL PRVL PRVL PRVL PRVL PRVL
VIS 10 >6 >6 >6 >6 >6 >6 >6 >6 >6 >6 >6 >6 >6
CIG -- 220 220 220 150 150 150 150 150 150 150 150 150 150
Cover FEW BKN BKN BKN BKN BKN BKN BKN BKN BKN BKN BKN BKN BKN
FltCat VFR VFR VFR VFR VFR VFR VFR VFR VFR VFR VFR VFR VFR VFR
WX -- VCTS VCTS VCTS -- -- -- -- -- -- -- -- -- --
WDir -- 300 300 300 320 320 320 320 320 320 320 320 320 320
WSpd -- 10 10 10 10 10 10 10 10 10 10 10 10 10
WGst -- 20 20 20 -- -- -- -- -- -- -- -- -- --
Raw TAF
KTCS 021736Z 0218/0318 04010KT P6SM FEW070 SCT120
  FM022000 30010G20KT P6SM VCTS SCT080CB SCT130 BKN220
  FM030200 32010KT P6SM BKN150


Raw METAR
KTCS 022153Z AUTO 10SM FEW100 29/13 A3024 RMK AO2 SLP153 T02890128 $
KTCS 022053Z AUTO 00000KT 10SM SCT060 28/14 A3024 RMK AO2 SLP154 T02830139 56018
KTCS 021953Z AUTO 09006KT 10SM SCT060 29/13 A3026 RMK AO2 LTG DSNT SW-NW SLP159 T02890133 $

METAR Board
Radar Display
Forecast Discussion
For situational awareness. Not to be used for flight planning purposes.